createdAt,value
2016-08-30T00:00:36.401Z,0
2016-08-30T00:01:33.272Z,0
2016-08-30T00:02:35.640Z,0
2016-08-30T00:03:31.829Z,0
2016-08-30T00:04:31.811Z,0
2016-08-30T00:05:31.049Z,0
2016-08-30T00:06:32.729Z,0
2016-08-30T00:07:32.268Z,0
2016-08-30T00:08:32.228Z,0
2016-08-30T00:09:32.367Z,0
2016-08-30T00:10:32.187Z,0
2016-08-30T00:11:32.478Z,0
2016-08-30T00:12:32.035Z,0
2016-08-30T00:13:32.389Z,0
2016-08-30T00:14:32.578Z,0
2016-08-30T00:15:31.447Z,0
2016-08-30T00:16:31.858Z,0
2016-08-30T00:17:32.029Z,0
2016-08-30T00:18:31.858Z,0
2016-08-30T00:19:32.117Z,0
2016-08-30T00:20:32.218Z,0
2016-08-30T00:21:31.620Z,0
2016-08-30T00:22:31.777Z,0
2016-08-30T00:23:31.548Z,0
2016-08-30T00:24:31.688Z,0
2016-08-30T00:25:30.752Z,0
2016-08-30T00:26:31.618Z,0
2016-08-30T00:27:31.359Z,0
2016-08-30T00:28:31.908Z,0
2016-08-30T00:29:31.292Z,0
2016-08-30T00:30:31.240Z,0
2016-08-30T00:31:29.789Z,0
2016-08-30T00:32:30.456Z,0
2016-08-30T00:33:31.315Z,0
2016-08-30T00:34:29.838Z,0
2016-08-30T00:35:31.204Z,0
2016-08-30T00:36:31.156Z,0
2016-08-30T00:37:30.937Z,0
2016-08-30T00:38:30.149Z,0
2016-08-30T00:39:30.818Z,0
2016-08-30T00:40:30.765Z,0
2016-08-30T00:41:30.747Z,0
2016-08-30T00:42:30.566Z,0
2016-08-30T00:43:30.646Z,0
2016-08-30T00:44:30.497Z,0
2016-08-30T00:45:30.563Z,0
2016-08-30T00:46:30.696Z,0
2016-08-30T00:47:30.457Z,0
2016-08-30T00:48:29.958Z,0
2016-08-30T00:49:30.371Z,0
2016-08-30T00:50:29.985Z,0
2016-08-30T00:51:30.473Z,0
2016-08-30T00:52:29.506Z,0
2016-08-30T00:53:30.172Z,0
2016-08-30T00:54:30.337Z,0
2016-08-30T00:55:29.386Z,0
2016-08-30T00:56:30.020Z,0
2016-08-30T00:57:29.988Z,0
2016-08-30T00:58:30.150Z,0
2016-08-30T00:59:28.508Z,0
2016-08-30T01:00:29.928Z,0
2016-08-30T01:01:30.025Z,0
2016-08-30T01:02:29.077Z,0
2016-08-30T01:03:29.726Z,0
2016-08-30T01:04:29.666Z,0
2016-08-30T01:05:29.611Z,0
2016-08-30T01:06:29.772Z,0
2016-08-30T01:07:28.327Z,0
2016-08-30T01:08:29.715Z,0
2016-08-30T01:09:29.446Z,0
2016-08-30T01:10:29.101Z,0
2016-08-30T01:11:29.356Z,0
2016-08-30T01:12:28.815Z,0
2016-08-30T01:13:29.263Z,0
2016-08-30T01:14:29.219Z,0
2016-08-30T01:15:29.676Z,0
2016-08-30T01:16:28.418Z,0
2016-08-30T01:17:29.086Z,0
2016-08-30T01:18:29.454Z,0
2016-08-30T01:19:28.285Z,0
2016-08-30T01:20:29.336Z,0
2016-08-30T01:21:29.106Z,0
2016-08-30T01:22:27.473Z,0
2016-08-30T01:23:27.677Z,0
2016-08-30T01:24:28.760Z,0
2016-08-30T01:25:29.006Z,0
2016-08-30T01:26:28.724Z,0
2016-08-30T01:27:28.617Z,0
2016-08-30T01:28:28.587Z,0
2016-08-30T01:29:28.927Z,0
2016-08-30T01:30:27.966Z,0
2016-08-30T01:31:28.433Z,0
2016-08-30T01:32:27.902Z,0
2016-08-30T01:33:28.757Z,0
2016-08-30T01:34:28.885Z,0
2016-08-30T01:35:28.866Z,0
2016-08-30T01:36:28.206Z,0
2016-08-30T01:37:28.176Z,0
2016-08-30T01:38:28.757Z,0
2016-08-30T01:39:27.802Z,0
2016-08-30T01:40:28.038Z,0
2016-08-30T01:41:28.180Z,0
2016-08-30T01:42:28.324Z,0
2016-08-30T01:43:28.107Z,0
2016-08-30T01:44:27.848Z,0
2016-08-30T01:45:27.808Z,0
2016-08-30T01:46:27.759Z,0
2016-08-30T01:47:28.118Z,0
2016-08-30T01:48:27.657Z,0
2016-08-30T01:49:27.148Z,0
2016-08-30T01:50:27.777Z,0
2016-08-30T01:51:26.919Z,0
2016-08-30T01:52:27.468Z,0
2016-08-30T01:53:27.634Z,0
2016-08-30T01:54:26.708Z,0
2016-08-30T01:55:26.508Z,0
2016-08-30T01:56:27.359Z,0
2016-08-30T01:57:27.487Z,0
2016-08-30T01:58:26.717Z,0
2016-08-30T01:59:26.457Z,0
2016-08-30T02:00:27.098Z,0
2016-08-30T02:01:27.068Z,0
2016-08-30T02:02:27.239Z,0
2016-08-30T02:03:27.178Z,0
2016-08-30T02:04:26.961Z,0
2016-08-30T02:05:27.168Z,0
2016-08-30T02:06:26.868Z,0
2016-08-30T02:07:27.002Z,0
2016-08-30T02:08:26.068Z,0
2016-08-30T02:09:26.897Z,0
2016-08-30T02:10:25.986Z,0
2016-08-30T02:11:25.887Z,0
2016-08-30T02:12:26.055Z,0
2016-08-30T02:13:26.518Z,0
2016-08-30T02:14:25.755Z,0
2016-08-30T02:15:25.876Z,0
2016-08-30T02:16:25.669Z,0
2016-08-30T02:17:26.927Z,0
2016-08-30T02:18:26.715Z,0
2016-08-30T02:19:25.545Z,0
2016-08-30T02:20:25.789Z,0
2016-08-30T02:21:26.193Z,0
2016-08-30T02:22:26.099Z,0
2016-08-30T02:23:24.887Z,0
2016-08-30T02:24:26.417Z,0
2016-08-30T02:25:26.606Z,0
2016-08-30T02:26:26.103Z,0
2016-08-30T02:27:25.158Z,0
2016-08-30T02:28:26.019Z,0
2016-08-30T02:29:25.982Z,0
2016-08-30T02:30:25.018Z,0
2016-08-30T02:31:25.658Z,0
2016-08-30T02:32:24.918Z,0
2016-08-30T02:33:24.906Z,0
2016-08-30T02:34:25.579Z,0
2016-08-30T02:35:25.534Z,0
2016-08-30T02:36:25.494Z,0
2016-08-30T02:37:25.407Z,0
2016-08-30T02:38:25.566Z,0
2016-08-30T02:39:25.310Z,0
2016-08-30T02:40:24.838Z,0
2016-08-30T02:41:25.439Z,0
2016-08-30T02:42:25.239Z,0
2016-08-30T02:43:25.120Z,0
2016-08-30T02:44:25.068Z,0
2016-08-30T02:45:25.558Z,0
2016-08-30T02:46:25.199Z,0
2016-08-30T02:47:25.149Z,0
2016-08-30T02:48:24.463Z,0
2016-08-30T02:49:25.459Z,0
2016-08-30T02:50:24.421Z,0
2016-08-30T02:51:25.138Z,0
2016-08-30T02:52:24.130Z,0
2016-08-30T02:53:24.899Z,0
2016-08-30T02:54:23.916Z,0
2016-08-30T02:55:23.901Z,0
2016-08-30T02:56:25.349Z,0
2016-08-30T02:57:24.483Z,0
2016-08-30T02:58:24.438Z,0
2016-08-30T02:59:24.397Z,0
2016-08-30T03:00:23.859Z,0
2016-08-30T03:01:23.797Z,0
2016-08-30T03:02:23.548Z,0
2016-08-30T03:03:24.210Z,0
2016-08-30T03:04:24.167Z,0
2016-08-30T03:05:24.226Z,0
2016-08-30T03:06:23.610Z,0
2016-08-30T03:07:23.516Z,0
2016-08-30T03:08:24.141Z,0
2016-08-30T03:09:23.258Z,0
2016-08-30T03:10:24.284Z,0
2016-08-30T03:11:24.050Z,0
2016-08-30T03:12:23.820Z,0
2016-08-30T03:13:23.759Z,0
2016-08-30T03:14:23.699Z,0
2016-08-30T03:15:23.489Z,0
2016-08-30T03:16:23.592Z,0
2016-08-30T03:17:23.554Z,0
2016-08-30T03:18:23.918Z,0
2016-08-30T03:19:23.657Z,0
2016-08-30T03:20:22.019Z,0
2016-08-30T03:21:23.375Z,0
2016-08-30T03:22:23.325Z,0
2016-08-30T03:23:22.768Z,0
2016-08-30T03:24:23.467Z,0
2016-08-30T03:25:23.420Z,0
2016-08-30T03:26:23.373Z,0
2016-08-30T03:27:22.603Z,0
2016-08-30T03:28:23.024Z,0
2016-08-30T03:29:22.326Z,0
2016-08-30T03:30:23.157Z,0
2016-08-30T03:31:22.914Z,0
2016-08-30T03:32:22.201Z,0
2016-08-30T03:33:23.021Z,0
2016-08-30T03:34:22.780Z,0
2016-08-30T03:35:21.353Z,0
2016-08-30T03:36:22.368Z,0
2016-08-30T03:37:22.629Z,0
2016-08-30T03:38:22.288Z,0
2016-08-30T03:39:21.327Z,0
2016-08-30T03:40:22.012Z,0
2016-08-30T03:41:22.349Z,0
2016-08-30T03:42:22.389Z,0
2016-08-30T03:43:21.701Z,0
2016-08-30T03:44:22.309Z,0
2016-08-30T03:45:21.858Z,0
2016-08-30T03:46:22.219Z,0
2016-08-30T03:47:22.178Z,0
2016-08-30T03:48:22.150Z,0
2016-08-30T03:49:22.331Z,0
2016-08-30T03:50:21.796Z,0
2016-08-30T03:51:22.199Z,0
2016-08-30T03:52:22.278Z,0
2016-08-30T03:53:22.098Z,0
2016-08-30T03:54:21.251Z,0
2016-08-30T03:55:22.047Z,0
2016-08-30T03:56:21.264Z,0
2016-08-30T03:57:21.726Z,0
2016-08-30T03:58:21.878Z,0
2016-08-30T03:59:21.830Z,0
2016-08-30T04:00:22.179Z,0
2016-08-30T04:01:20.818Z,0
2016-08-30T04:02:21.679Z,0
2016-08-30T04:03:21.418Z,0
2016-08-30T04:04:20.875Z,0
2016-08-30T04:05:20.883Z,0
2016-08-30T04:06:20.629Z,0
2016-08-30T04:07:20.030Z,0
2016-08-30T04:08:20.719Z,0
2016-08-30T04:09:21.208Z,0
2016-08-30T04:10:20.802Z,0
2016-08-30T04:11:21.239Z,0
2016-08-30T04:12:21.009Z,0
2016-08-30T04:13:20.295Z,0
2016-08-30T04:14:21.121Z,0
2016-08-30T04:15:20.267Z,0
2016-08-30T04:16:20.117Z,0
2016-08-30T04:17:20.769Z,0
2016-08-30T04:18:35.112Z,0
2016-08-30T04:19:20.866Z,0
2016-08-30T04:20:20.650Z,0
2016-08-30T04:21:20.304Z,0
2016-08-30T04:22:20.960Z,0
2016-08-30T04:23:20.519Z,0
2016-08-30T04:24:20.674Z,0
2016-08-30T04:25:20.626Z,0
2016-08-30T04:26:19.846Z,0
2016-08-30T04:27:19.620Z,0
2016-08-30T04:28:20.367Z,0
2016-08-30T04:29:19.527Z,0
2016-08-30T04:30:19.868Z,0
2016-08-30T04:31:19.434Z,0
2016-08-30T04:32:20.073Z,0
2016-08-30T04:33:20.238Z,0
2016-08-30T04:34:19.490Z,0
2016-08-30T04:35:18.532Z,0
2016-08-30T04:36:20.134Z,0
2016-08-30T04:37:19.839Z,0
2016-08-30T04:38:19.698Z,0
2016-08-30T04:39:19.050Z,0
2016-08-30T04:40:18.997Z,0
2016-08-30T04:41:19.160Z,0
2016-08-30T04:42:19.619Z,0
2016-08-30T04:43:19.592Z,0
2016-08-30T04:44:19.948Z,0
2016-08-30T04:45:18.936Z,0
2016-08-30T04:46:18.720Z,0
2016-08-30T04:47:19.384Z,0
2016-08-30T04:48:18.616Z,0
2016-08-30T04:49:19.319Z,0
2016-08-30T04:50:18.267Z,0
2016-08-30T04:51:18.740Z,0
2016-08-30T04:52:19.119Z,0
2016-08-30T04:53:19.090Z,0
2016-08-30T04:54:18.577Z,0
2016-08-30T04:55:19.409Z,0
2016-08-30T04:56:18.958Z,0
2016-08-30T04:57:18.970Z,0
2016-08-30T04:58:18.849Z,0
2016-08-30T04:59:19.002Z,0
2016-08-30T05:00:18.759Z,0
2016-08-30T05:01:18.919Z,0
2016-08-30T05:02:18.882Z,5
2016-08-30T05:03:18.826Z,5
2016-08-30T05:04:18.099Z,5
2016-08-30T05:05:17.360Z,5
2016-08-30T05:06:17.797Z,5
2016-08-30T05:07:18.830Z,5
2016-08-30T05:08:18.398Z,5
2016-08-30T05:09:17.565Z,5
2016-08-30T05:10:18.457Z,5
2016-08-30T05:11:18.278Z,5
2016-08-30T05:12:17.501Z,5
2016-08-30T05:13:18.345Z,5
2016-08-30T05:14:18.110Z,5
2016-08-30T05:15:18.491Z,5
2016-08-30T05:16:17.329Z,5
2016-08-30T05:17:17.978Z,5
2016-08-30T05:18:17.233Z,5
2016-08-30T05:19:18.084Z,5
2016-08-30T05:20:16.525Z,5
2016-08-30T05:21:18.018Z,5
2016-08-30T05:22:17.939Z,10
2016-08-30T05:23:17.922Z,10
2016-08-30T05:24:18.548Z,10
2016-08-30T05:25:17.930Z,10
2016-08-30T05:26:18.161Z,10
2016-08-30T05:27:17.498Z,10
2016-08-30T05:28:17.448Z,10
2016-08-30T05:29:16.926Z,10
2016-08-30T05:30:17.368Z,10
2016-08-30T05:31:17.342Z,10
2016-08-30T05:32:17.265Z,10
2016-08-30T05:33:17.216Z,10
2016-08-30T05:34:16.537Z,15
2016-08-30T05:35:16.727Z,15
2016-08-30T05:36:16.053Z,15
2016-08-30T05:37:17.438Z,15
2016-08-30T05:38:15.989Z,15
2016-08-30T05:39:16.967Z,15
2016-08-30T05:40:16.207Z,15
2016-08-30T05:41:16.839Z,15
2016-08-30T05:42:16.178Z,15
2016-08-30T05:43:16.491Z,15
2016-08-30T05:44:16.727Z,15
2016-08-30T05:45:16.667Z,15
2016-08-30T05:46:15.959Z,15
2016-08-30T05:47:16.776Z,15
2016-08-30T05:48:15.156Z,15
2016-08-30T05:49:16.667Z,15
2016-08-30T05:50:15.335Z,15
2016-08-30T05:51:16.478Z,15
2016-08-30T05:52:16.744Z,15
2016-08-30T05:57:13.314Z,20
2016-08-30T05:58:05.711Z,20
2016-08-30T05:59:07.866Z,20
2016-08-30T06:00:15.270Z,20
2016-08-30T06:01:25.810Z,20
2016-08-30T06:02:03.295Z,20
2016-08-30T06:03:02.595Z,20
2016-08-30T06:04:03.157Z,20
2016-08-30T06:05:03.679Z,20
2016-08-30T06:06:03.195Z,20
2016-08-30T06:08:03.541Z,25
2016-08-30T06:09:13.729Z,25
2016-08-30T06:10:19.171Z,25
2016-08-30T06:11:05.228Z,25
2016-08-30T06:12:03.198Z,25
2016-08-30T06:13:02.749Z,25
2016-08-30T06:14:02.379Z,25
2016-08-30T06:15:06.722Z,25
2016-08-30T06:16:01.898Z,25
2016-08-30T06:17:03.841Z,30
2016-08-30T06:18:01.816Z,30
2016-08-30T06:19:02.669Z,30
2016-08-30T06:20:04.105Z,30
2016-08-30T06:21:02.718Z,30
2016-08-30T06:22:02.548Z,30
2016-08-30T06:23:01.660Z,30
2016-08-30T06:24:03.367Z,30
2016-08-30T06:25:09.430Z,30
2016-08-30T06:26:05.028Z,35
2016-08-30T06:27:02.088Z,35
2016-08-30T06:28:03.609Z,35
2016-08-30T06:29:04.477Z,35
2016-08-30T06:30:03.319Z,35
2016-08-30T06:31:02.083Z,35
2016-08-30T06:32:03.918Z,35
2016-08-30T06:33:03.875Z,35
2016-08-30T06:34:02.450Z,35
2016-08-30T06:35:03.124Z,35
2016-08-30T06:36:03.654Z,35
2016-08-30T06:37:03.752Z,35
2016-08-30T06:38:02.318Z,35
2016-08-30T06:39:04.025Z,40
2016-08-30T06:40:04.109Z,40
2016-08-30T06:41:03.032Z,40
2016-08-30T06:42:02.317Z,40
2016-08-30T06:43:04.028Z,40
2016-08-30T06:44:03.599Z,40
2016-08-30T06:45:02.760Z,40
2016-08-30T06:46:03.299Z,40
2016-08-30T06:47:03.367Z,40
2016-08-30T06:48:02.488Z,45
2016-08-30T06:49:02.526Z,45
2016-08-30T06:50:01.714Z,45
2016-08-30T06:51:03.502Z,45
2016-08-30T06:52:02.528Z,45
2016-08-30T06:53:02.390Z,45
2016-08-30T06:54:01.699Z,50
2016-08-30T06:55:02.816Z,50
2016-08-30T06:56:02.843Z,50
2016-08-30T06:57:02.787Z,50
2016-08-30T06:58:02.753Z,50
2016-08-30T06:59:02.002Z,50
2016-08-30T07:00:02.034Z,55
2016-08-30T07:01:01.713Z,55
2016-08-30T07:02:02.121Z,55
2016-08-30T07:03:03.028Z,55
2016-08-30T07:04:03.486Z,60
2016-08-30T07:05:01.980Z,55
2016-08-30T07:06:02.839Z,55
2016-08-30T07:07:01.701Z,55
2016-08-30T07:08:02.501Z,55
2016-08-30T07:09:02.368Z,60
2016-08-30T07:10:00.160Z,60
2016-08-30T07:11:02.209Z,60
2016-08-30T07:12:00.948Z,60
2016-08-30T07:13:01.826Z,65
2016-08-30T07:14:02.634Z,65
2016-08-30T07:15:03.959Z,65
2016-08-30T07:16:02.168Z,65
2016-08-30T07:17:02.322Z,70
2016-08-30T07:18:01.867Z,70
2016-08-30T07:19:02.095Z,70
2016-08-30T07:19:59.272Z,70
2016-08-30T07:21:00.613Z,70
2016-08-30T07:22:00.567Z,70
2016-08-30T07:22:59.609Z,70
2016-08-30T07:23:59.917Z,75
2016-08-30T07:24:58.791Z,75
2016-08-30T07:26:00.819Z,75
2016-08-30T07:27:01.414Z,75
2016-08-30T07:28:01.044Z,75
2016-08-30T07:29:00.884Z,80
2016-08-30T07:30:00.329Z,80
2016-08-30T07:31:00.340Z,80
2016-08-30T07:32:01.236Z,80
2016-08-30T07:33:01.601Z,80
2016-08-30T07:34:01.319Z,80
2016-08-30T07:35:03.474Z,80
2016-08-30T07:36:01.486Z,85
2016-08-30T07:37:00.336Z,85
2016-08-30T07:38:01.674Z,85
2016-08-30T07:39:00.788Z,85
2016-08-30T07:40:01.298Z,85
2016-08-30T07:41:00.858Z,90
2016-08-30T07:42:00.298Z,90
2016-08-30T07:42:59.726Z,90
2016-08-30T07:43:59.425Z,90
2016-08-30T07:44:59.349Z,90
2016-08-30T07:46:01.217Z,90
2016-08-30T07:47:00.560Z,90
2016-08-30T07:47:58.484Z,100
2016-08-30T07:48:59.793Z,90
2016-08-30T07:50:00.989Z,95
2016-08-30T07:51:00.276Z,95
2016-08-30T07:52:00.715Z,95
2016-08-30T07:53:00.901Z,95
2016-08-30T07:53:58.905Z,95
2016-08-30T07:54:59.706Z,100
2016-08-30T07:56:00.198Z,100
2016-08-30T07:57:00.128Z,100
2016-08-30T07:58:03.344Z,100
2016-08-30T07:58:58.689Z,100
2016-08-30T07:59:59.333Z,100
2016-08-30T08:00:59.723Z,105
2016-08-30T08:01:58.754Z,105
2016-08-30T08:02:59.210Z,105
2016-08-30T08:03:59.020Z,105
2016-08-30T08:04:59.855Z,105
2016-08-30T08:05:59.015Z,105
2016-08-30T08:06:59.770Z,105
2016-08-30T08:07:57.715Z,110
2016-08-30T08:08:59.587Z,105
2016-08-30T08:09:59.958Z,110
2016-08-30T08:10:58.991Z,110
2016-08-30T08:11:58.745Z,110
2016-08-30T08:13:00.313Z,110
2016-08-30T08:13:59.739Z,110
2016-08-30T08:14:59.758Z,110
2016-08-30T08:15:58.123Z,110
2016-08-30T08:16:58.596Z,110
2016-08-30T08:17:57.726Z,110
2016-08-30T08:19:00.532Z,110
2016-08-30T08:19:58.692Z,110
2016-08-30T08:20:58.347Z,110
2016-08-30T08:21:58.495Z,110
2016-08-30T08:22:58.991Z,110
2016-08-30T08:23:58.326Z,115
2016-08-30T08:24:58.914Z,110
2016-08-30T08:25:58.893Z,110
2016-08-30T08:26:58.105Z,110
2016-08-30T08:27:58.513Z,110
2016-08-30T08:28:58.184Z,115
2016-08-30T08:29:58.769Z,115
2016-08-30T08:30:58.613Z,115
2016-08-30T08:31:58.801Z,115
2016-08-30T08:32:58.016Z,115
2016-08-30T08:33:57.791Z,115
2016-08-30T08:34:58.661Z,115
2016-08-30T08:35:58.876Z,115
2016-08-30T08:36:57.691Z,115
2016-08-30T08:37:57.307Z,115
2016-08-30T08:38:58.324Z,115
2016-08-30T08:39:57.697Z,115
2016-08-30T08:42:11.681Z,115
2016-08-30T08:42:35.746Z,115
2016-08-30T08:43:22.388Z,55
2016-08-30T08:44:23.609Z,115
2016-08-30T08:45:30.967Z,115
2016-08-30T08:46:21.694Z,75
2016-08-30T08:47:22.833Z,65
2016-08-30T08:48:21.173Z,55
2016-08-30T08:49:21.692Z,45
2016-08-30T08:50:22.763Z,35
2016-08-30T08:51:21.862Z,35
2016-08-30T08:52:21.730Z,35
2016-08-30T08:53:21.510Z,105
2016-08-30T08:54:21.428Z,120
2016-08-30T08:55:26.659Z,120
2016-08-30T08:56:21.983Z,120
2016-08-30T08:57:21.210Z,120
2016-08-30T08:58:20.902Z,35
2016-08-30T08:59:21.394Z,45
2016-08-30T09:00:20.883Z,40
2016-08-30T09:01:20.472Z,50
2016-08-30T09:02:20.402Z,115
2016-08-30T09:03:21.228Z,120
2016-08-30T09:04:21.026Z,120
2016-08-30T09:05:21.716Z,115
2016-08-30T09:06:21.845Z,115
2016-08-30T09:07:20.991Z,120
2016-08-30T09:08:20.118Z,115
2016-08-30T09:09:22.261Z,115
2016-08-30T09:10:21.768Z,110
2016-08-30T09:11:20.162Z,105
2016-08-30T09:12:21.448Z,110
2016-08-30T09:13:21.580Z,105
2016-08-30T09:14:23.210Z,105
2016-08-30T09:15:22.634Z,105
2016-08-30T09:16:21.170Z,95
2016-08-30T09:17:22.271Z,105
2016-08-30T09:18:21.858Z,100
2016-08-30T09:19:21.731Z,105
2016-08-30T09:20:21.948Z,105
2016-08-30T09:21:22.409Z,105
2016-08-30T09:22:21.473Z,110
2016-08-30T09:23:22.228Z,110
2016-08-30T09:24:21.278Z,110
2016-08-30T09:25:21.777Z,110
2016-08-30T09:26:20.070Z,110
2016-08-30T09:27:21.451Z,95
2016-08-30T09:28:21.486Z,100
2016-08-30T09:29:21.550Z,105
2016-08-30T09:30:20.578Z,105
2016-08-30T09:31:21.406Z,70
2016-08-30T09:32:21.073Z,110
2016-08-30T09:33:20.008Z,110
2016-08-30T09:34:19.869Z,115
2016-08-30T09:35:21.067Z,115
2016-08-30T09:36:20.677Z,110
2016-08-30T09:37:21.049Z,110
2016-08-30T09:38:21.305Z,110
2016-08-30T09:39:21.865Z,105
2016-08-30T09:40:22.345Z,105
2016-08-30T09:41:25.928Z,105
2016-08-30T09:42:19.745Z,110
2016-08-30T09:43:20.898Z,105
2016-08-30T09:44:21.475Z,100
2016-08-30T09:45:20.606Z,105
2016-08-30T09:46:21.416Z,105
2016-08-30T09:47:20.569Z,105
2016-08-30T09:48:20.013Z,105
2016-08-30T09:49:21.638Z,105
2016-08-30T09:50:19.938Z,100
2016-08-30T09:51:21.232Z,100
2016-08-30T09:52:20.995Z,100
2016-08-30T09:53:20.845Z,100
2016-08-30T09:54:20.206Z,100
2016-08-30T09:55:21.185Z,100
2016-08-30T09:56:20.967Z,100
2016-08-30T09:57:21.264Z,100
2016-08-30T09:58:20.045Z,95
2016-08-30T09:59:20.347Z,100
2016-08-30T10:00:20.302Z,100
2016-08-30T10:01:21.058Z,100
2016-08-30T10:02:20.413Z,100
2016-08-30T10:03:19.852Z,100
2016-08-30T10:04:19.858Z,95
2016-08-30T10:05:20.942Z,95
2016-08-30T10:06:19.003Z,95
2016-08-30T10:07:19.210Z,95
2016-08-30T10:08:19.680Z,95
2016-08-30T10:09:20.968Z,95
2016-08-30T10:10:20.470Z,95
2016-08-30T10:11:21.165Z,100
2016-08-30T10:12:20.177Z,100
2016-08-30T10:13:19.381Z,95
2016-08-30T10:14:20.218Z,100
2016-08-30T10:15:20.126Z,95
2016-08-30T10:16:20.138Z,95
2016-08-30T10:17:19.926Z,95
2016-08-30T10:18:19.218Z,95
2016-08-30T10:19:20.254Z,95
2016-08-30T10:20:17.970Z,95
2016-08-30T10:21:19.980Z,95
2016-08-30T10:22:19.701Z,95
2016-08-30T10:23:20.091Z,95
2016-08-30T10:24:18.481Z,95
2016-08-30T10:25:19.970Z,95
2016-08-30T10:26:19.219Z,95
2016-08-30T10:27:18.903Z,95
2016-08-30T10:28:18.904Z,95
2016-08-30T10:29:19.529Z,95
2016-08-30T10:30:19.254Z,95
2016-08-30T10:31:18.808Z,95
2016-08-30T10:32:19.338Z,95
2016-08-30T10:33:19.038Z,90
2016-08-30T10:34:18.896Z,90
2016-08-30T10:35:19.331Z,90
2016-08-30T10:36:17.044Z,90
2016-08-30T10:37:18.489Z,90
2016-08-30T10:38:19.136Z,85
2016-08-30T10:39:18.362Z,85
2016-08-30T10:40:19.369Z,85
2016-08-30T10:41:19.176Z,85
2016-08-30T10:42:18.412Z,85
2016-08-30T10:43:17.632Z,105
2016-08-30T10:44:16.659Z,85
2016-08-30T10:45:18.320Z,85
2016-08-30T10:46:18.121Z,85
2016-08-30T10:47:17.222Z,85
2016-08-30T10:48:18.074Z,85
2016-08-30T10:49:17.882Z,85
2016-08-30T10:50:17.937Z,85
2016-08-30T10:51:18.503Z,80
2016-08-30T10:52:19.053Z,80
2016-08-30T10:53:18.247Z,80
2016-08-30T10:54:16.925Z,80
2016-08-30T10:55:18.358Z,85
2016-08-30T10:56:17.933Z,85
2016-08-30T10:57:16.794Z,85
2016-08-30T10:58:18.437Z,85
2016-08-30T10:59:17.967Z,85
2016-08-30T11:00:16.896Z,85
2016-08-30T11:01:17.325Z,85
2016-08-30T11:02:17.381Z,85
2016-08-30T11:03:17.311Z,85
2016-08-30T11:04:17.888Z,85
2016-08-30T11:05:17.764Z,85
2016-08-30T11:06:17.328Z,85
2016-08-30T11:07:17.463Z,85
2016-08-30T11:08:17.232Z,80
2016-08-30T11:09:17.703Z,80
2016-08-30T11:10:16.691Z,80
2016-08-30T11:11:16.697Z,80
2016-08-30T11:12:16.834Z,85
2016-08-30T11:13:17.617Z,85
2016-08-30T11:14:15.348Z,85
2016-08-30T11:15:17.915Z,85
2016-08-30T11:16:16.736Z,85
2016-08-30T11:17:17.539Z,85
2016-08-30T11:18:17.405Z,85
2016-08-30T11:19:17.315Z,85
2016-08-30T11:20:16.726Z,85
2016-08-30T11:21:15.835Z,85
2016-08-30T11:22:17.132Z,85
2016-08-30T11:23:17.156Z,85
2016-08-30T11:24:15.844Z,85
2016-08-30T11:25:17.031Z,90
2016-08-30T11:26:16.455Z,85
2016-08-30T11:27:16.705Z,85
2016-08-30T11:28:17.074Z,85
2016-08-30T11:29:17.255Z,85
2016-08-30T11:30:17.248Z,85
2016-08-30T11:31:17.376Z,85
2016-08-30T11:32:15.525Z,90
2016-08-30T11:33:15.988Z,85
2016-08-30T11:34:15.349Z,85
2016-08-30T11:35:17.405Z,95
2016-08-30T11:36:16.461Z,95
2016-08-30T11:37:16.467Z,95
2016-08-30T11:38:15.808Z,95
2016-08-30T11:39:15.681Z,95
2016-08-30T11:40:16.444Z,95
2016-08-30T11:41:14.908Z,95
2016-08-30T11:42:16.571Z,95
2016-08-30T11:43:15.933Z,95
2016-08-30T11:44:14.874Z,95
2016-08-30T11:45:15.759Z,95
2016-08-30T11:46:14.853Z,95
2016-08-30T11:47:15.439Z,95
2016-08-30T11:48:15.967Z,100
2016-08-30T11:49:15.622Z,100
2016-08-30T11:50:16.253Z,100
2016-08-30T11:51:14.067Z,95
2016-08-30T11:52:15.545Z,100
2016-08-30T11:53:15.304Z,100
2016-08-30T11:54:15.555Z,100
2016-08-30T11:55:15.231Z,100
2016-08-30T11:56:15.257Z,100
2016-08-30T11:57:15.410Z,100
2016-08-30T11:58:14.929Z,100
2016-08-30T11:59:15.619Z,100
2016-08-30T12:00:14.588Z,100
2016-08-30T12:01:14.763Z,100
2016-08-30T12:02:15.452Z,100
2016-08-30T12:03:14.218Z,100
2016-08-30T12:04:15.326Z,100
2016-08-30T12:05:15.484Z,100
2016-08-30T12:06:14.255Z,100
2016-08-30T12:07:15.222Z,100
2016-08-30T12:08:14.416Z,100
2016-08-30T12:09:13.852Z,100
2016-08-30T12:10:14.596Z,100
2016-08-30T12:11:15.203Z,100
2016-08-30T12:12:14.634Z,100
2016-08-30T12:13:13.943Z,105
2016-08-30T12:14:14.206Z,105
2016-08-30T12:15:13.844Z,105
2016-08-30T12:16:15.484Z,105
2016-08-30T12:17:14.809Z,105
2016-08-30T12:18:14.789Z,105
2016-08-30T12:19:14.025Z,105
2016-08-30T12:20:14.021Z,105
2016-08-30T12:21:15.209Z,105
2016-08-30T12:22:14.041Z,105
2016-08-30T12:23:13.415Z,105
2016-08-30T12:24:15.602Z,105
2016-08-30T12:25:14.027Z,100
2016-08-30T12:26:14.930Z,100
2016-08-30T12:27:13.201Z,105
2016-08-30T12:28:12.623Z,105
2016-08-30T12:29:14.406Z,105
2016-08-30T12:30:12.945Z,105
2016-08-30T12:31:13.921Z,105
2016-08-30T12:32:13.511Z,105
2016-08-30T12:33:14.267Z,105
2016-08-30T12:34:13.359Z,105
2016-08-30T12:35:16.548Z,105
2016-08-30T12:36:13.427Z,105
2016-08-30T12:37:14.106Z,110
2016-08-30T12:38:14.369Z,110
2016-08-30T12:39:23.589Z,110
2016-08-30T12:40:14.484Z,105
2016-08-30T12:41:13.347Z,110
2016-08-30T12:42:11.893Z,105
2016-08-30T12:43:12.374Z,105
2016-08-30T12:44:13.664Z,105
2016-08-30T12:45:13.998Z,105
2016-08-30T12:46:13.557Z,105
2016-08-30T12:47:13.589Z,105
2016-08-30T12:48:13.954Z,105
2016-08-30T12:49:13.466Z,105
2016-08-30T12:50:12.868Z,105
2016-08-30T12:51:13.334Z,110
2016-08-30T12:52:11.166Z,110
2016-08-30T12:53:11.991Z,110
2016-08-30T12:54:13.612Z,110
2016-08-30T12:55:13.252Z,110
2016-08-30T12:56:13.453Z,110
2016-08-30T12:57:13.151Z,110
2016-08-30T12:58:11.593Z,110
2016-08-30T12:59:13.083Z,110
2016-08-30T13:00:11.769Z,105
2016-08-30T13:01:11.460Z,105
2016-08-30T13:02:11.617Z,110
2016-08-30T13:03:11.451Z,40
2016-08-30T13:04:12.398Z,45
2016-08-30T13:05:10.673Z,110
2016-08-30T13:06:12.614Z,110
2016-08-30T13:07:11.973Z,115
2016-08-30T13:08:12.661Z,115
2016-08-30T13:09:13.256Z,110
2016-08-30T13:10:12.045Z,80
2016-08-30T13:11:11.130Z,110
2016-08-30T13:12:12.249Z,115
2016-08-30T13:13:11.748Z,115
2016-08-30T13:14:12.620Z,115
2016-08-30T13:15:10.584Z,115
2016-08-30T13:16:12.139Z,115
2016-08-30T13:17:12.669Z,115
2016-08-30T13:18:13.053Z,120
2016-08-30T13:19:11.494Z,120
2016-08-30T13:20:13.977Z,120
2016-08-30T13:21:11.599Z,120
2016-08-30T13:22:10.877Z,115
2016-08-30T13:23:10.723Z,115
2016-08-30T13:24:11.975Z,115
2016-08-30T13:25:09.818Z,110
2016-08-30T13:26:11.915Z,115
2016-08-30T13:27:11.898Z,115
2016-08-30T13:28:11.586Z,115
2016-08-30T13:29:11.796Z,120
2016-08-30T13:30:10.624Z,120
2016-08-30T13:31:11.837Z,120
2016-08-30T13:32:10.383Z,120
2016-08-30T13:33:10.990Z,115
2016-08-30T13:34:11.789Z,115
2016-08-30T13:35:10.979Z,120
2016-08-30T13:36:11.580Z,120
2016-08-30T13:37:09.560Z,125
2016-08-30T13:38:11.417Z,125
2016-08-30T13:39:09.419Z,125
2016-08-30T13:40:10.493Z,125
2016-08-30T13:41:11.293Z,125
2016-08-30T13:42:09.866Z,125
2016-08-30T13:43:11.029Z,125
2016-08-30T13:44:09.841Z,125
2016-08-30T13:45:09.740Z,125
2016-08-30T13:46:10.437Z,125
2016-08-30T13:47:10.317Z,125
2016-08-30T13:48:10.790Z,130
2016-08-30T13:49:10.446Z,125
2016-08-30T13:50:09.714Z,125
2016-08-30T13:51:11.056Z,130
2016-08-30T13:52:10.783Z,130
2016-08-30T13:53:10.952Z,130
2016-08-30T13:54:09.992Z,130
2016-08-30T13:55:10.041Z,130
2016-08-30T13:56:09.509Z,130
2016-08-30T13:57:10.658Z,130
2016-08-30T13:58:09.043Z,130
2016-08-30T13:59:10.622Z,130
2016-08-30T14:00:09.837Z,130
2016-08-30T14:01:09.241Z,135
2016-08-30T14:02:10.673Z,130
2016-08-30T14:03:09.815Z,130
2016-08-30T14:04:09.363Z,130
2016-08-30T14:05:10.474Z,130
2016-08-30T14:06:10.023Z,130
2016-08-30T14:07:08.067Z,130
2016-08-30T14:08:08.926Z,135
2016-08-30T14:09:09.680Z,135
2016-08-30T14:10:08.851Z,135
2016-08-30T14:11:09.629Z,135
2016-08-30T14:12:09.260Z,135
2016-08-30T14:13:09.968Z,135
2016-08-30T14:14:09.941Z,135
2016-08-30T14:15:10.058Z,135
2016-08-30T14:16:10.624Z,140
2016-08-30T14:17:09.533Z,140
2016-08-30T14:18:09.006Z,140
2016-08-30T14:19:09.871Z,140
2016-08-30T14:20:09.186Z,140
2016-08-30T14:21:08.925Z,140
2016-08-30T14:22:08.374Z,145